Pulpca — PHMT — position and weather

sailwx.info

Track history (hours):
 
Tides and Currents Weather Stations Pressure Air Temp Water Temp Dewpoint Dewpoint Depression Visibility Wind Speed Wind Dir Waves Ship Positions

Pulpca

Last reported at 2015-Mar-29 22:31 UTC. Time now 2015-Mar-30 07:08 UTC.
Position N 55°41' E 015°39'.

Length 205 m; draft 6.7 m.

Type: Ship (hazmat cat A). MMSI: 245097000.

Date/timePositionNaut miles runAvg speedWind from/ knotsBaromVisibWave heightAir tempDewpointWater temp
2015-Mar-29 22:31N 55°41' E 015°39'2020.6
2015-Mar-29 21:33N 55°31' E 015°08'2020.3
2015-Mar-29 20:33N 55°21' E 014°37'2120.6
2015-Mar-29 19:33N 55°05' E 014°15'2020.0
2015-Mar-29 18:33N 54°56' E 013°43'2020.5
2015-Mar-29 17:33N 54°49' E 013°10'2019.9
2015-Mar-29 16:33N 54°42' E 012°38'1919.4
2015-Mar-29 15:33N 54°29' E 012°13'2019.6
2015-Mar-29 14:33N 54°17' E 011°47'2120.6
2015-Mar-29 13:33N 54°07' E 011°16'2 0.2
2015-Mar-29 01:33N 54°08' E 011°13'1817.9
2015-Mar-29 00:33N 54°18' E 011°38'1817.7
2015-Mar-28 23:33N 54°26' E 012°05'1817.0
2015-Mar-28 22:30N 54°40' E 012°26'1918.3
2015-Mar-28 21:27N 54°49' E 012°55'1718.4
2015-Mar-28 20:33N 54°55' E 013°22'1818.5
2015-Mar-28 19:33N 55°01' E 013°52'1818.1
2015-Mar-28 18:33N 55°12' E 014°17'1818.2
2015-Mar-28 17:33N 55°26' E 014°37'1818.1
2015-Mar-28 16:34N 55°36' E 015°04'1818.0
2015-Mar-28 15:32N 55°45' E 015°32'1818.3
2015-Mar-28 14:34N 55°54' E 015°59'32214.5
2015-Mar-27 16:22N 59°45' E 023°02'1821.7
2015-Mar-27 15:33N 59°34' E 023°29'18 1.6
2015-Mar-27 04:10N 59°46' E 023°02'33718.1
2015-Mar-26 09:34N 55°43' E 015°43'1818.4
2015-Mar-26 08:33N 55°35' E 015°14'1818.5
2015-Mar-26 07:33N 55°26' E 014°46'1918.6
2015-Mar-26 06:33N 55°12' E 014°24'1818.5
2015-Mar-26 05:33N 55°00' E 013°59'1918.6
2015-Mar-26 04:33N 54°54' E 013°29'1918.6
2015-Mar-26 03:33N 54°47' E 012°59'1918.5
2015-Mar-26 02:33N 54°39' E 012°30'1818.2
2015-Mar-26 01:33N 54°25' E 012°09'1818.5
2015-Mar-26 00:33N 54°15' E 011°42'1918.7
2015-Mar-25 23:33N 54°07' E 011°14'10 0.5
2015-Mar-25 04:06N 54°02' E 010°60'917.0
2015-Mar-25 03:33N 54°08' E 011°11'1717.2
2015-Mar-25 02:33N 54°17' E 011°36'1717.2
2015-Mar-25 01:33N 54°26' E 012°02'1515.2
2015-Mar-25 00:33N 54°37' E 012°19'1817.5
2015-Mar-24 23:33N 54°47' E 012°44'1717.4
2015-Mar-24 22:33N 54°53' E 013°12'1717.4
2015-Mar-24 21:33N 54°59' E 013°41'1717.3
2015-Mar-24 20:33N 55°06' E 014°08'1717.4
2015-Mar-24 19:34N 55°20' E 014°27'1717.3
2015-Mar-24 18:33N 55°31' E 014°51'1817.5
2015-Mar-24 17:33N 55°40' E 015°17'1817.3
2015-Mar-24 16:31N 55°49' E 015°45'332 7.1
2015-Mar-22 17:29N 59°49' E 022°57'35521.0
2015-Mar-22 00:33N 55°35' E 015°12'2121.4
2015-Mar-21 23:33N 55°24' E 014°40'2120.9
2015-Mar-21 22:34N 55°07' E 014°17'2120.4
2015-Mar-21 21:33N 54°57' E 013°46'2020.3
2015-Mar-21 20:33N 54°50' E 013°13'2019.5
2015-Mar-21 19:33N 54°44' E 012°41'1818.5
2015-Mar-21 18:33N 54°33' E 012°16'1717.3
2015-Mar-21 17:33N 54°20' E 011°56'1919.5
2015-Mar-21 16:33N 54°11' E 011°27'9 0.7
2015-Mar-21 02:33N 54°08' E 011°11'1817.9
2015-Mar-21 01:33N 54°18' E 011°37'1817.7
2015-Mar-21 00:33N 54°26' E 012°04'7617.3
2015-Mar-20 20:09N 55°03' E 013°59'1117.5
2015-Mar-20 19:32N 55°10' E 014°14'1818.0
2015-Mar-20 18:33N 55°23' E 014°33'1817.9
2015-Mar-20 17:33N 55°33' E 014°60'2418.0
2015-Mar-20 16:15N 55°45' E 015°36'  
Track history (hours):
 
Tides and Currents Weather Stations Pressure Air Temp Water Temp Dewpoint Dewpoint Depression Visibility Wind Speed Wind Dir Waves Ship Positions

Pulpca

Last reported at 2015-Mar-29 22:31 UTC. Time now 2015-Mar-30 07:08 UTC.
Position N 55°41' E 015°39'.

Length 205 m; draft 6.7 m.

Type: Ship (hazmat cat A). MMSI: 245097000.

Date/timePositionNaut miles runAvg speedWind from/ knotsBaromVisibWave heightAir tempDewpointWater temp
2015-Mar-29 22:31N 55°41' E 015°39'2020.6
2015-Mar-29 21:33N 55°31' E 015°08'2020.3
2015-Mar-29 20:33N 55°21' E 014°37'2120.6
2015-Mar-29 19:33N 55°05' E 014°15'2020.0
2015-Mar-29 18:33N 54°56' E 013°43'2020.5
2015-Mar-29 17:33N 54°49' E 013°10'2019.9
2015-Mar-29 16:33N 54°42' E 012°38'1919.4
2015-Mar-29 15:33N 54°29' E 012°13'2019.6
2015-Mar-29 14:33N 54°17' E 011°47'2120.6
2015-Mar-29 13:33N 54°07' E 011°16'2 0.2
2015-Mar-29 01:33N 54°08' E 011°13'1817.9
2015-Mar-29 00:33N 54°18' E 011°38'1817.7
2015-Mar-28 23:33N 54°26' E 012°05'1817.0
2015-Mar-28 22:30N 54°40' E 012°26'1918.3
2015-Mar-28 21:27N 54°49' E 012°55'1718.4
2015-Mar-28 20:33N 54°55' E 013°22'1818.5
2015-Mar-28 19:33N 55°01' E 013°52'1818.1
2015-Mar-28 18:33N 55°12' E 014°17'1818.2
2015-Mar-28 17:33N 55°26' E 014°37'1818.1
2015-Mar-28 16:34N 55°36' E 015°04'1818.0
2015-Mar-28 15:32N 55°45' E 015°32'1818.3
2015-Mar-28 14:34N 55°54' E 015°59'32214.5
2015-Mar-27 16:22N 59°45' E 023°02'1821.7
2015-Mar-27 15:33N 59°34' E 023°29'18 1.6
2015-Mar-27 04:10N 59°46' E 023°02'33718.1
2015-Mar-26 09:34N 55°43' E 015°43'1818.4
2015-Mar-26 08:33N 55°35' E 015°14'1818.5
2015-Mar-26 07:33N 55°26' E 014°46'1918.6
2015-Mar-26 06:33N 55°12' E 014°24'1818.5
2015-Mar-26 05:33N 55°00' E 013°59'1918.6
2015-Mar-26 04:33N 54°54' E 013°29'1918.6
2015-Mar-26 03:33N 54°47' E 012°59'1918.5
2015-Mar-26 02:33N 54°39' E 012°30'1818.2
2015-Mar-26 01:33N 54°25' E 012°09'1818.5
2015-Mar-26 00:33N 54°15' E 011°42'1918.7
2015-Mar-25 23:33N 54°07' E 011°14'10 0.5
2015-Mar-25 04:06N 54°02' E 010°60'917.0
2015-Mar-25 03:33N 54°08' E 011°11'1717.2
2015-Mar-25 02:33N 54°17' E 011°36'1717.2
2015-Mar-25 01:33N 54°26' E 012°02'1515.2
2015-Mar-25 00:33N 54°37' E 012°19'1817.5
2015-Mar-24 23:33N 54°47' E 012°44'1717.4
2015-Mar-24 22:33N 54°53' E 013°12'1717.4
2015-Mar-24 21:33N 54°59' E 013°41'1717.3
2015-Mar-24 20:33N 55°06' E 014°08'1717.4
2015-Mar-24 19:34N 55°20' E 014°27'1717.3
2015-Mar-24 18:33N 55°31' E 014°51'1817.5
2015-Mar-24 17:33N 55°40' E 015°17'1817.3
2015-Mar-24 16:31N 55°49' E 015°45'332 7.1
2015-Mar-22 17:29N 59°49' E 022°57'35521.0
2015-Mar-22 00:33N 55°35' E 015°12'2121.4
2015-Mar-21 23:33N 55°24' E 014°40'2120.9
2015-Mar-21 22:34N 55°07' E 014°17'2120.4
2015-Mar-21 21:33N 54°57' E 013°46'2020.3
2015-Mar-21 20:33N 54°50' E 013°13'2019.5
2015-Mar-21 19:33N 54°44' E 012°41'1818.5
2015-Mar-21 18:33N 54°33' E 012°16'1717.3
2015-Mar-21 17:33N 54°20' E 011°56'1919.5
2015-Mar-21 16:33N 54°11' E 011°27'9 0.7
2015-Mar-21 02:33N 54°08' E 011°11'1817.9
2015-Mar-21 01:33N 54°18' E 011°37'1817.7
2015-Mar-21 00:33N 54°26' E 012°04'7617.3
2015-Mar-20 20:09N 55°03' E 013°59'1117.5
2015-Mar-20 19:32N 55°10' E 014°14'1818.0
2015-Mar-20 18:33N 55°23' E 014°33'1817.9
2015-Mar-20 17:33N 55°33' E 014°60'2418.0
2015-Mar-20 16:15N 55°45' E 015°36'  

Dump ship's entire track history